Kalamazoo, MI

5:08 AM EST on February 11, 2016 (GMT -0500)
Fleetwood | | Change Station
CLOSE
Current Station
Personal Weather Station
Location: Galesburg, MI
Elevation: 801 ft
Nearby Weather Stations
Active Advisory: Winter Weather Advisory Active Notice: Local Storm Report

Elev 801 ft 42.29 °N, 85.43 °W | Updated 1 second ago

Overcast
Overcast
6.8 °F
Feels Like 7 °F
N
0.0
Wind Variable Wind from South
Gusts 0.0 mph

Today
High -- | Low -- °F
--% Chance of Precip.
Yesterday
High -- | Low -- °F
Precip. -- in
Pressure 30.16 in
Visibility 10.0 miles
Clouds Mostly Cloudy 4500 ft
Overcast 5500 ft
Windchill 7 °F
Dew Point -1 °F
Humidity 70%
Rainfall 0.00 in
Snow Depth Not available.
7:44 AM 6:08 PM
Waxing Crescent, 11% visible
METAR KAZO 110953Z AUTO 28005KT 10SM BKN045 OVC055 M10/M13 A3011 RMK AO2 SNE25 SLP213 P0000 T11001133
Pressure 30.16 in
Visibility 10.0 miles
Clouds Mostly Cloudy 4500 ft
Overcast 5500 ft
Windchill 7 °F
Dew Point -1 °F
Humidity 70%
Rainfall 0.00 in
Snow Depth Not available.
7:44 AM 6:08 PM
Waxing Crescent, 11% visible
METAR KAZO 110953Z AUTO 28005KT 10SM BKN045 OVC055 M10/M13 A3011 RMK AO2 SNE25 SLP213 P0000 T11001133

10-Day Weather Forecast

Almanac

Astronomy

Feb. 11, 2016 Rise Set
Actual Time
Civil Twilight
Nautical Twilight
Astronomical Twilight
Moon
Length of Visible Light
Length of Day
Tomorrow will be .
, % of the Moon is Illuminated

Today's Extremes

State Highs State Lows

Community

WunderPhotos

Upload Photos

1,892,030 photos uploaded!

WunderBlog® & News

Nearby

Air Quality

  Air Quality AQ Index Pollutant
Not available.

Snow Depth

Station Depth Elevation

Earthquake Activity

City Distance Mag. Time & Date
Minimum magnitude displayed is 2.5.

Coastal Water Temperatures

Place Temperature

Stations

Nearby Weather Stations

Station Location Temp. Windchill Dew Point Humidity Wind Precip. Elev Updated Type
                   

Watches & Warnings

Winter Weather Advisory
Issued: 3:44 AM EST Feb. 11, 2016 – National Weather Service

... Winter Weather Advisory remains in effect until 10 am EST this
morning...

Hazardous weather...

* occasional snow showers through mid morning... then diminishing.

* An additional 1 to 2 inches of snow can be expected through 10
   am. The storm totals will be 4 to 8 inches... with localized
   higher amounts possible.

Impacts...

* roads will be snow covered and slippery.

* Travel slowdowns and accidents possible.

Precautionary/preparedness actions...

* the Michigan Department of Transportation reminds motorists
   to adjust speeds based on the conditions... and to take it
   slow in ice and snow.

* Weather preparedness information is available on line at
   www.Ready.Gov/winter and http://go.USA.Gov/5og.